Time;durP1;ratioP1;P1;durP2;ratioP2;P2;SDS_P1;SDS_P2;PMS_P1;PMS_P2;Temp;Humidity;BMP_temperature;BMP_pressure;BME280_temperature;BME280_humidity;BME280_pressure;Samples;Min_cycle;Max_cycle;Signal;HPM_P1;HPM_P2
2022/12/29 00:01:16;;;;;;;1.80;0.80;;;;;;;11.47;75.42;99016.47;5011435;28;20058;-61
2022/12/29 00:03:47;;;;;;;1.27;0.80;;;;;;;11.35;75.24;99016.53;5008132;28;20433;-63
2022/12/29 00:06:14;;;;;;;1.15;0.80;;;;;;;11.47;74.52;98983.03;5011168;28;20065;-63
2022/12/29 00:08:41;;;;;;;1.55;0.77;;;;;;;11.43;74.75;99007.22;5010464;28;20058;-62
2022/12/29 00:11:18;;;;;;;3.42;0.90;;;;;;;11.41;74.53;98994.78;5014686;28;20053;-63
2022/12/29 00:16:31;;;;;;;1.55;0.70;;;;;;;11.53;73.90;99017.84;5014879;28;20505;-58
2022/12/29 00:18:59;;;;;;;1.45;0.80;;;;;;;11.51;73.92;98983.13;5015028;28;20053;-58
2022/12/29 00:35:30;;;;;;;1.08;0.60;;;;;;;11.68;76.09;98954.88;5015618;28;20394;-57
2022/12/29 00:46:24;;;;;;;0.80;0.52;;;;;;;11.67;75.98;98956.03;5015867;28;20585;-59
2022/12/29 00:51:39;;;;;;;1.00;0.60;;;;;;;11.69;75.95;98964.06;5016498;28;20060;-58
2022/12/29 00:54:07;;;;;;;1.02;0.50;;;;;;;11.76;75.94;98962.28;5015734;28;20049;-59
2022/12/29 00:56:34;;;;;;;1.10;0.57;;;;;;;11.70;75.88;98960.13;5014628;28;20050;-58
2022/12/29 00:59:04;;;;;;;1.00;0.70;;;;;;;11.63;76.04;98960.72;5013336;28;20050;-59
2022/12/29 01:01:32;;;;;;;1.15;0.50;;;;;;;11.62;76.93;98945.16;5011833;28;20042;-59
2022/12/29 01:04:00;;;;;;;3.55;0.80;;;;;;;11.73;76.76;98949.03;5014256;28;20058;-59
2022/12/29 01:06:34;;;;;;;1.25;0.50;;;;;;;11.71;76.53;98951.38;5014434;28;20057;-58
2022/12/29 01:11:46;;;;;;;1.33;0.70;;;;;;;11.79;77.02;98935.63;5014892;28;20057;-58
2022/12/29 01:14:21;;;;;;;0.70;0.40;;;;;;;11.64;77.58;98956.78;5011359;28;20053;-58
2022/12/29 01:16:48;;;;;;;0.75;0.50;;;;;;;11.62;79.12;98933.22;5013855;28;20049;-56
2022/12/29 01:19:17;;;;;;;1.23;0.60;;;;;;;11.60;78.98;98953.09;5014342;28;20057;-57
2022/12/29 01:21:44;;;;;;;1.45;0.75;;;;;;;11.68;79.36;98956.88;5012922;28;20049;-57
2022/12/29 01:24:12;;;;;;;1.70;0.63;;;;;;;11.59;80.48;98954.25;5013162;28;20081;-57
2022/12/29 01:26:40;;;;;;;1.00;0.60;;;;;;;11.56;79.96;98946.59;5013971;28;20061;-58
2022/12/29 01:29:07;;;;;;;1.25;0.70;;;;;;;11.53;79.41;98934.19;5012116;28;20407;-58
2022/12/29 01:31:36;;;;;;;1.42;0.50;;;;;;;11.56;79.83;98927.06;5011310;28;20475;-58
2022/12/29 01:34:04;;;;;;;1.17;0.60;;;;;;;11.49;79.23;98927.72;5013915;28;20060;-58
2022/12/29 01:36:32;;;;;;;1.80;0.60;;;;;;;11.44;79.01;98924.38;5013349;28;20049;-58
2022/12/29 01:39:03;;;;;;;1.20;0.60;;;;;;;11.42;79.23;98940.66;5014062;28;20062;-57
2022/12/29 01:41:31;;;;;;;0.90;0.50;;;;;;;11.57;78.59;98929.50;5012698;28;20054;-57
2022/12/29 01:44:00;;;;;;;0.90;0.50;;;;;;;11.63;77.75;98941.19;5012083;28;20054;-57
2022/12/29 01:46:34;;;;;;;0.90;0.60;;;;;;;11.62;76.94;98944.38;5013693;28;20046;-58
2022/12/29 01:49:14;;;;;;;1.33;0.50;;;;;;;11.49;78.46;98915.75;5014721;28;20054;-58
2022/12/29 01:51:46;;;;;;;1.17;0.65;;;;;;;11.59;78.63;98923.59;5014810;28;20057;-58
2022/12/29 01:54:23;;;;;;;0.80;0.40;;;;;;;11.53;78.56;98956.50;5014714;28;20064;-58
2022/12/29 01:56:52;;;;;;;1.35;0.40;;;;;;;11.56;78.60;98938.22;5013613;28;20061;-58
2022/12/29 01:59:26;;;;;;;1.07;0.60;;;;;;;11.62;79.17;98950.75;5014736;28;20406;-58
2022/12/29 02:01:53;;;;;;;0.80;0.40;;;;;;;11.62;78.90;98928.44;5014951;28;20050;-58
2022/12/29 02:04:26;;;;;;;2.42;0.47;;;;;;;11.52;78.26;98938.13;5014723;28;20054;-58
2022/12/29 02:06:56;;;;;;;0.65;0.30;;;;;;;11.48;77.31;98936.41;5013919;28;20058;-58
2022/12/29 02:09:37;;;;;;;0.43;0.30;;;;;;;11.68;76.08;98932.56;5012110;28;20053;-58
2022/12/29 02:12:05;;;;;;;0.55;0.30;;;;;;;11.67;75.80;98927.34;5011242;28;20073;-58
2022/12/29 02:14:33;;;;;;;0.73;0.40;;;;;;;11.68;75.49;98921.41;5014655;28;20065;-58
2022/12/29 02:17:11;;;;;;;0.70;0.40;;;;;;;11.80;75.28;98940.06;5014509;28;20062;-57
2022/12/29 02:20:28;;;;;;;0.50;0.38;;;;;;;11.81;74.07;98887.84;5014116;28;20060;-57
2022/12/29 02:23:17;;;;;;;0.47;0.30;;;;;;;11.94;74.17;98903.34;4966266;28;20407;-57
2022/12/29 02:26:06;;;;;;;1.13;0.50;;;;;;;11.97;73.25;98917.38;5013966;28;20053;-58
2022/12/29 02:29:09;;;;;;;0.40;0.30;;;;;;;12.02;72.91;98905.13;5012245;28;20414;-57
2022/12/29 02:31:42;;;;;;;2.38;0.35;;;;;;;12.07;72.82;98904.03;5009426;28;20072;-56
2022/12/29 02:34:27;;;;;;;0.70;0.30;;;;;;;12.12;72.50;98903.78;5013334;28;20061;-58
2022/12/29 02:37:04;;;;;;;0.80;0.40;;;;;;;12.07;72.45;98888.09;5014076;28;20402;-57
2022/12/29 02:39:38;;;;;;;1.52;0.68;;;;;;;12.02;74.68;98893.97;5014006;28;20058;-57
2022/12/29 02:42:15;;;;;;;1.00;0.50;;;;;;;12.03;74.77;98878.03;5011450;28;20060;-57
2022/12/29 02:44:53;;;;;;;1.23;0.45;;;;;;;11.93;73.89;98871.03;5013274;28;20050;-58
2022/12/29 02:47:30;;;;;;;0.93;0.50;;;;;;;11.95;73.20;98866.72;5013264;28;20061;-57
2022/12/29 02:50:04;;;;;;;0.65;0.40;;;;;;;11.91;73.41;98888.13;5013069;28;20049;-59
2022/12/29 02:52:35;;;;;;;1.63;0.60;;;;;;;11.91;72.14;98870.59;5011337;28;20050;-59
2022/12/29 02:55:11;;;;;;;0.52;0.38;;;;;;;12.01;72.45;98874.78;5012059;28;20060;-65
2022/12/29 02:57:39;;;;;;;0.90;0.50;;;;;;;12.03;71.33;98878.81;5012375;28;20046;-65
2022/12/29 03:00:11;;;;;;;1.13;0.43;;;;;;;12.10;70.63;98876.22;5013402;28;20402;-65
2022/12/29 03:03:04;;;;;;;1.10;0.43;;;;;;;12.10;69.38;98867.03;5013275;28;20054;-64
2022/12/29 03:06:03;;;;;;;1.10;0.60;;;;;;;12.13;68.84;98872.69;5012501;28;20064;-64
2022/12/29 03:08:40;;;;;;;0.60;0.40;;;;;;;12.23;68.10;98902.03;5013553;28;20418;-63
2022/12/29 03:12:07;;;;;;;0.95;0.40;;;;;;;12.33;68.46;98856.78;5012852;28;20061;-65
2022/12/29 03:16:54;;;;;;;2.22;0.68;;;;;;;12.39;67.68;98880.44;4993779;28;20065;-63
2022/12/29 03:19:25;;;;;;;1.45;0.50;;;;;;;12.37;66.95;98870.84;4993512;28;20482;-63
2022/12/29 03:24:47;;;;;;;1.02;0.52;;;;;;;12.56;65.74;98864.44;4999261;28;20057;-62
2022/12/29 03:27:20;;;;;;;1.30;0.60;;;;;;;12.62;65.79;98881.69;4998466;28;20060;-64
2022/12/29 03:29:56;;;;;;;2.15;0.65;;;;;;;12.56;65.47;98873.63;5013009;28;20376;-65
2022/12/29 03:32:28;;;;;;;1.75;0.60;;;;;;;12.58;66.41;98882.44;5013040;28;20053;-63
2022/12/29 03:34:59;;;;;;;1.63;0.75;;;;;;;12.65;66.33;98879.00;5012013;28;20057;-63
2022/12/29 03:37:33;;;;;;;1.00;0.55;;;;;;;12.46;67.59;98888.16;5012933;28;20057;-63
2022/12/29 03:40:00;;;;;;;0.98;0.60;;;;;;;12.23;70.19;98878.88;5012850;28;20065;-64
2022/12/29 03:42:31;;;;;;;0.80;0.55;;;;;;;12.25;72.66;98865.38;5010810;28;20053;-62
2022/12/29 03:44:59;;;;;;;1.20;0.60;;;;;;;12.25;72.88;98868.16;5011939;28;20053;-64
2022/12/29 03:47:29;;;;;;;1.13;0.57;;;;;;;12.19;71.99;98870.44;5012713;28;20420;-64
2022/12/29 03:49:58;;;;;;;1.70;0.70;;;;;;;12.15;72.24;98859.16;5012418;28;20054;-63
2022/12/29 03:52:28;;;;;;;2.17;0.60;;;;;;;12.15;71.27;98867.53;5012913;28;20054;-63
2022/12/29 03:54:59;;;;;;;1.50;0.60;;;;;;;12.08;71.88;98878.56;5012115;28;20046;-64
2022/12/29 03:57:26;;;;;;;1.60;0.70;;;;;;;12.10;72.17;98861.47;5011886;28;20058;-63
2022/12/29 03:59:54;;;;;;;1.35;0.80;;;;;;;12.02;72.52;98876.41;5012394;28;20065;-63
2022/12/29 04:02:21;;;;;;;1.63;0.60;;;;;;;12.02;73.07;98863.28;5011347;28;20053;-63
2022/12/29 04:04:49;;;;;;;1.90;0.80;;;;;;;11.92;73.75;98855.47;5006770;28;20050;-62
2022/12/29 04:07:18;;;;;;;1.70;0.80;;;;;;;11.51;79.10;98857.66;5009800;28;20410;-64
2022/12/29 04:09:45;;;;;;;1.88;0.80;;;;;;;11.52;78.77;98853.69;5010321;28;20053;-63
2022/12/29 04:12:14;;;;;;;2.83;0.80;;;;;;;11.53;78.33;98852.53;5011419;28;20130;-64
2022/12/29 04:14:41;;;;;;;1.35;0.80;;;;;;;11.61;78.77;98845.94;5011449;28;20190;-65
2022/12/29 04:17:09;;;;;;;1.10;0.60;;;;;;;11.55;77.36;98839.84;5012224;28;20042;-63
2022/12/29 04:19:36;;;;;;;1.25;0.65;;;;;;;11.55;77.36;98830.66;5012561;28;20061;-63
2022/12/29 04:22:04;;;;;;;1.40;0.70;;;;;;;11.55;76.65;98855.75;5012252;28;20046;-63
2022/12/29 04:24:35;;;;;;;0.73;0.43;;;;;;;11.61;76.72;98836.75;5012223;28;20057;-65
2022/12/29 04:27:04;;;;;;;1.15;0.60;;;;;;;11.64;75.86;98841.63;5011106;28;20073;-62
2022/12/29 04:29:31;;;;;;;1.50;0.57;;;;;;;11.66;75.91;98831.72;5012438;28;20053;-64
2022/12/29 04:32:02;;;;;;;1.02;0.60;;;;;;;11.77;75.31;98816.03;5012225;28;20054;-62
2022/12/29 04:34:29;;;;;;;1.63;0.68;;;;;;;11.85;75.02;98805.06;5011856;28;20054;-63
2022/12/29 04:36:57;;;;;;;1.00;0.65;;;;;;;11.87;74.88;98797.13;5011624;28;20057;-62
2022/12/29 04:39:24;;;;;;;1.02;0.60;;;;;;;11.91;73.29;98787.69;5010778;28;20046;-64
2022/12/29 04:41:53;;;;;;;0.95;0.50;;;;;;;12.00;72.66;98806.22;5012205;28;20064;-62
2022/12/29 04:44:21;;;;;;;0.75;0.50;;;;;;;11.93;72.10;98773.38;5011892;28;20046;-62
2022/12/29 04:46:49;;;;;;;1.60;0.70;;;;;;;11.95;72.15;98774.63;5012203;28;20053;-63
2022/12/29 04:49:16;;;;;;;2.35;0.80;;;;;;;11.90;71.86;98785.25;5012471;28;20513;-63
2022/12/29 04:51:44;;;;;;;1.05;0.57;;;;;;;11.95;71.71;98783.00;5012350;28;20050;-63
2022/12/29 04:54:11;;;;;;;1.10;0.70;;;;;;;12.01;71.25;98797.47;5009741;28;20061;-63
2022/12/29 04:56:39;;;;;;;3.05;0.90;;;;;;;12.05;71.11;98803.13;5015146;28;20058;-64
2022/12/29 04:59:11;;;;;;;1.58;0.52;;;;;;;12.09;70.65;98804.81;5015630;28;20057;-65
2022/12/29 05:01:44;;;;;;;1.00;0.60;;;;;;;12.21;70.30;98805.88;5016072;28;20061;-63
2022/12/29 05:04:11;;;;;;;0.88;0.60;;;;;;;12.32;69.60;98826.44;5014913;28;20054;-63
2022/12/29 05:06:39;;;;;;;0.80;0.50;;;;;;;12.28;69.35;98794.84;5016065;28;20060;-63
2022/12/29 05:09:09;;;;;;;1.17;0.77;;;;;;;12.29;68.59;98796.47;5013499;28;20064;-63
2022/12/29 05:11:36;;;;;;;2.05;0.70;;;;;;;12.40;68.02;98791.91;5014492;28;20046;-63
2022/12/29 05:14:03;;;;;;;1.85;0.65;;;;;;;12.43;68.42;98805.16;5013584;28;20057;-63
2022/12/29 05:16:41;;;;;;;1.50;0.60;;;;;;;12.54;68.02;98824.91;5014480;28;20058;-64
2022/12/29 05:19:09;;;;;;;1.42;0.90;;;;;;;12.48;67.48;98806.81;5013641;28;20395;-63
2022/12/29 05:21:36;;;;;;;1.23;0.45;;;;;;;12.61;66.80;98813.06;5015648;28;20406;-63
2022/12/29 05:24:04;;;;;;;1.48;0.60;;;;;;;12.73;65.31;98807.31;5012986;28;20053;-63
2022/12/29 05:26:31;;;;;;;1.58;0.57;;;;;;;12.69;64.86;98832.38;5015777;28;20061;-62
2022/12/29 05:29:09;;;;;;;0.98;0.50;;;;;;;12.77;64.91;98811.78;5014917;28;20058;-61
2022/12/29 05:31:36;;;;;;;1.33;0.77;;;;;;;12.79;64.99;98819.81;5013658;28;20482;-64
2022/12/29 05:34:06;;;;;;;1.08;0.60;;;;;;;12.90;64.10;98815.22;5014730;28;20065;-65
2022/12/29 05:36:33;;;;;;;1.23;0.60;;;;;;;12.95;63.10;98816.91;5014895;28;20054;-62
2022/12/29 05:39:04;;;;;;;1.02;0.60;;;;;;;13.04;63.22;98864.16;5012821;28;20491;-62
2022/12/29 05:42:01;;;;;;;1.55;0.68;;;;;;;12.97;63.05;98815.34;5014028;28;20053;-62
2022/12/29 05:44:29;;;;;;;1.58;0.50;;;;;;;13.06;62.43;98811.50;5010438;28;20050;-61
2022/12/29 05:46:56;;;;;;;1.30;0.50;;;;;;;13.08;61.88;98835.13;5015028;28;20061;-62
2022/12/29 05:49:25;;;;;;;1.00;0.65;;;;;;;13.06;61.89;98839.44;5015056;28;20065;-62
2022/12/29 05:51:52;;;;;;;1.50;0.73;;;;;;;13.06;62.66;98845.88;5014573;28;20050;-62
2022/12/29 05:54:20;;;;;;;1.90;1.08;;;;;;;13.09;61.69;98845.13;5013435;28;20493;-63
2022/12/29 05:56:47;;;;;;;1.40;0.70;;;;;;;13.16;62.03;98856.41;5014922;28;20065;-62
2022/12/29 05:59:15;;;;;;;2.35;0.65;;;;;;;13.09;61.88;98864.69;5014570;28;20062;-62
2022/12/29 06:01:42;;;;;;;1.60;0.75;;;;;;;13.15;62.52;98834.44;5015048;28;20058;-62
2022/12/29 06:04:10;;;;;;;1.65;0.77;;;;;;;13.22;61.98;98873.69;5014255;28;20061;-62
2022/12/29 06:06:40;;;;;;;1.13;0.60;;;;;;;13.31;62.18;98839.94;5013781;28;20403;-62
2022/12/29 06:09:07;;;;;;;1.45;0.63;;;;;;;13.29;61.67;98831.94;5011477;28;20057;-62
2022/12/29 06:11:34;;;;;;;2.17;0.77;;;;;;;13.27;61.06;98851.03;5014608;28;20053;-62
2022/12/29 06:14:02;;;;;;;1.45;0.60;;;;;;;13.15;62.31;98843.63;5014220;28;20422;-62
2022/12/29 06:16:29;;;;;;;1.65;0.70;;;;;;;13.26;61.60;98852.22;5014803;28;20054;-64
2022/12/29 06:19:01;;;;;;;1.23;0.68;;;;;;;13.18;61.02;98837.28;5014412;28;20391;-61
2022/12/29 06:21:29;;;;;;;1.83;0.82;;;;;;;13.25;61.43;98855.38;5014063;28;20137;-62
2022/12/29 06:23:58;;;;;;;1.83;0.80;;;;;;;13.28;60.36;98847.06;5012402;28;20050;-61
2022/12/29 06:26:25;;;;;;;1.45;0.85;;;;;;;13.18;60.52;98840.06;5014586;28;20065;-62
2022/12/29 06:28:53;;;;;;;1.60;0.75;;;;;;;13.17;60.07;98843.28;5014032;28;20407;-62
2022/12/29 06:31:21;;;;;;;1.77;0.60;;;;;;;13.12;60.25;98833.22;5013938;28;20387;-63
2022/12/29 06:33:48;;;;;;;1.75;0.90;;;;;;;13.03;59.50;98860.56;5013909;28;20525;-62
2022/12/29 06:36:15;;;;;;;2.78;1.02;;;;;;;12.96;60.49;98857.66;5013592;28;20065;-62
2022/12/29 06:38:43;;;;;;;2.65;0.65;;;;;;;13.08;59.62;98874.25;5012157;28;20060;-61
2022/12/29 06:41:11;;;;;;;1.63;0.80;;;;;;;13.07;60.50;98852.25;5013771;28;20402;-61
2022/12/29 06:43:42;;;;;;;2.85;0.70;;;;;;;13.12;59.62;98849.16;5013746;28;20061;-61
2022/12/29 06:46:09;;;;;;;1.75;0.70;;;;;;;13.03;60.17;98854.97;5013708;28;20086;-62
2022/12/29 06:48:37;;;;;;;2.47;0.60;;;;;;;13.04;59.16;98870.59;5013945;28;20049;-61
2022/12/29 06:51:07;;;;;;;2.25;0.82;;;;;;;13.04;59.67;98869.75;5013775;28;20498;-61
2022/12/29 06:53:35;;;;;;;1.70;0.57;;;;;;;13.14;59.88;98875.53;5010944;28;20053;-62
2022/12/29 06:56:02;;;;;;;1.20;0.60;;;;;;;13.04;59.63;98881.78;5013748;28;20046;-61
2022/12/29 06:58:31;;;;;;;1.52;0.70;;;;;;;13.17;58.92;98899.97;5014052;28;20046;-61
2022/12/29 07:01:01;;;;;;;1.48;0.60;;;;;;;13.25;58.30;98892.53;5013516;28;20054;-61
2022/12/29 07:03:28;;;;;;;;;;;;;;;13.18;58.92;98920.34;5014159;28;20058;-62
2022/12/29 07:05:57;;;;;;;2.08;0.65;;;;;;;13.12;57.78;98911.47;5013708;28;19925;-61
2022/12/29 07:08:25;;;;;;;2.15;0.70;;;;;;;13.13;58.76;98907.50;5011329;28;20535;-61
2022/12/29 07:10:53;;;;;;;1.38;0.80;;;;;;;13.21;58.08;98914.03;5013178;28;20490;-61
2022/12/29 07:13:24;;;;;;;1.67;0.70;;;;;;;13.35;58.72;98907.91;5013405;28;20064;-62
2022/12/29 07:15:55;;;;;;;1.15;0.52;;;;;;;13.30;58.98;98911.03;5012229;28;20045;-61
2022/12/29 07:18:23;;;;;;;1.75;0.70;;;;;;;13.24;61.58;98909.69;5011326;28;20419;-61
2022/12/29 07:21:00;;;;;;;1.88;0.70;;;;;;;13.12;62.23;98907.84;5013342;28;20133;-62
2022/12/29 07:23:28;;;;;;;1.88;0.98;;;;;;;13.04;62.90;98914.47;5010659;28;20053;-62
2022/12/29 07:26:01;;;;;;;1.33;0.65;;;;;;;12.93;63.51;98922.66;5012425;28;20064;-62
2022/12/29 07:28:28;;;;;;;1.95;0.70;;;;;;;12.83;63.40;98915.69;5013185;28;20050;-62
2022/12/29 07:30:57;;;;;;;2.20;0.73;;;;;;;12.87;62.84;98921.34;5012885;28;20054;-62
2022/12/29 07:33:25;;;;;;;1.60;0.90;;;;;;;12.82;62.28;98930.81;5013314;28;20057;-61
2022/12/29 07:35:52;;;;;;;2.22;0.60;;;;;;;12.69;62.99;98926.56;5012639;28;20098;-62
2022/12/29 07:38:26;;;;;;;2.67;0.90;;;;;;;12.59;62.41;98939.91;5010864;28;20061;-63
2022/12/29 07:40:57;;;;;;;1.63;0.77;;;;;;;12.66;61.06;98935.66;5012888;28;20054;-61
2022/12/29 07:43:25;;;;;;;2.80;0.88;;;;;;;12.62;62.30;98945.94;5012563;28;20058;-62
2022/12/29 07:45:57;;;;;;;2.63;0.98;;;;;;;12.56;62.74;98942.66;5012806;28;20045;-62
2022/12/29 07:48:27;;;;;;;2.00;0.80;;;;;;;12.49;63.33;98946.06;5012407;28;20525;-63
2022/12/29 07:50:54;;;;;;;4.43;1.17;;;;;;;12.43;64.09;98946.72;5012945;28;20065;-62
2022/12/29 07:53:22;;;;;;;2.88;0.93;;;;;;;12.41;63.85;98975.03;5011228;28;20503;-62
2022/12/29 07:55:49;;;;;;;2.25;0.93;;;;;;;12.42;63.08;98936.75;5012903;28;20386;-62
2022/12/29 07:58:26;;;;;;;2.40;0.90;;;;;;;12.46;63.67;98951.59;5012881;28;20426;-63
2022/12/29 08:01:01;;;;;;;2.50;1.00;;;;;;;12.43;63.12;98975.47;5013106;28;20053;-63
2022/12/29 08:03:29;;;;;;;2.80;0.85;;;;;;;12.45;63.19;98969.50;5012410;28;20050;-62
2022/12/29 08:06:04;;;;;;;2.35;0.90;;;;;;;12.37;63.20;98962.97;5011091;28;20061;-62
2022/12/29 08:08:31;;;;;;;4.38;1.10;;;;;;;12.33;63.06;98990.00;5010203;28;20541;-62
2022/12/29 08:10:59;;;;;;;2.72;0.90;;;;;;;12.27;62.11;98985.88;5012851;28;20080;-63
2022/12/29 08:13:39;;;;;;;3.13;0.77;;;;;;;12.37;61.20;98977.72;5012421;28;20058;-63
2022/12/29 08:16:17;;;;;;;4.88;1.20;;;;;;;12.33;61.63;98992.78;5012084;28;20064;-62
2022/12/29 08:18:44;;;;;;;4.18;1.73;;;;;;;12.36;61.98;98992.84;5011653;28;20050;-63
2022/12/29 08:21:12;;;;;;;3.65;2.00;;;;;;;12.34;60.88;99006.38;5012193;28;20061;-62
2022/12/29 08:23:48;;;;;;;2.55;1.15;;;;;;;12.42;60.81;98987.00;5010709;28;20065;-61
2022/12/29 08:26:16;;;;;;;3.83;1.88;;;;;;;12.55;59.96;98999.66;5012356;28;20050;-61
2022/12/29 08:28:43;;;;;;;4.28;1.48;;;;;;;12.52;60.12;98994.81;5012573;28;20065;-63
2022/12/29 08:31:12;;;;;;;2.92;1.17;;;;;;;12.58;59.14;98993.38;5014339;28;20065;-63
2022/12/29 08:33:40;;;;;;;4.13;1.48;;;;;;;12.56;58.06;99006.91;5015915;28;20517;-61
2022/12/29 08:36:11;;;;;;;2.83;0.80;;;;;;;12.72;58.41;98987.28;5014137;28;20072;-63
2022/12/29 08:38:39;;;;;;;2.95;0.93;;;;;;;12.80;57.95;99012.22;5015244;28;20053;-63
2022/12/29 08:41:06;;;;;;;2.28;0.88;;;;;;;12.89;56.54;98994.44;5015796;28;20068;-62
2022/12/29 08:43:34;;;;;;;7.10;1.23;;;;;;;12.92;55.62;98988.94;5016235;28;20054;-62
2022/12/29 08:46:05;;;;;;;3.63;1.60;;;;;;;12.87;56.30;98989.22;5010875;28;20046;-61
2022/12/29 08:48:36;;;;;;;2.95;1.02;;;;;;;12.91;56.42;99000.47;5014683;28;20058;-63
2022/12/29 08:51:05;;;;;;;2.60;0.93;;;;;;;13.22;55.68;98993.94;5016061;28;20057;-62
2022/12/29 08:53:33;;;;;;;4.03;1.00;;;;;;;14.64;52.02;99005.25;5013739;28;20054;-62
2022/12/29 08:56:02;;;;;;;3.35;1.20;;;;;;;13.96;53.14;99004.13;5015483;28;20486;-61
2022/12/29 08:58:29;;;;;;;5.10;1.20;;;;;;;13.70;53.43;99000.06;5015233;28;20053;-62
2022/12/29 09:00:58;;;;;;;2.80;0.85;;;;;;;13.50;54.60;98998.50;5015116;28;20069;-61
2022/12/29 09:03:26;;;;;;;4.90;1.13;;;;;;;13.35;55.60;98984.22;5013624;28;20057;-62
2022/12/29 09:05:56;;;;;;;2.63;1.02;;;;;;;13.43;55.58;98987.19;5013260;28;20471;-61
2022/12/29 09:08:24;;;;;;;2.72;0.95;;;;;;;13.54;55.41;98985.38;5012241;28;20471;-61
2022/12/29 09:10:51;;;;;;;3.03;1.00;;;;;;;13.77;55.01;98991.84;5004489;28;20057;-62
2022/12/29 09:13:19;;;;;;;2.67;1.20;;;;;;;13.73;54.55;99002.16;5012250;28;20491;-63
2022/12/29 09:15:46;;;;;;;3.05;1.30;;;;;;;13.77;55.15;99005.81;5012526;28;20672;-62
2022/12/29 09:18:14;;;;;;;3.83;1.05;;;;;;;13.65;55.28;99017.19;5012813;28;20065;-61
2022/12/29 09:20:45;;;;;;;3.67;1.10;;;;;;;13.43;60.46;99041.13;5011370;28;20053;-62
2022/12/29 09:23:20;;;;;;;11.43;1.92;;;;;;;13.16;65.49;99066.09;5011090;28;20054;-62
2022/12/29 09:25:52;;;;;;;6.22;1.42;;;;;;;12.58;71.24;99075.19;5011177;28;20049;-62
2022/12/29 09:28:23;;;;;;;5.82;1.67;;;;;;;11.65;74.78;99067.16;5011413;28;20065;-62
2022/12/29 09:30:51;;;;;;;5.22;1.60;;;;;;;11.51;74.56;99064.00;5011059;28;20050;-63
2022/12/29 09:33:19;;;;;;;4.78;1.35;;;;;;;11.40;73.28;99074.00;5011418;28;20057;-63
2022/12/29 09:35:53;;;;;;;4.30;1.38;;;;;;;11.30;73.49;99065.00;5014629;28;20499;-63
2022/12/29 09:38:22;;;;;;;4.93;1.38;;;;;;;11.36;72.80;99071.94;5005109;28;20056;-59
2022/12/29 09:40:52;;;;;;;2.85;1.20;;;;;;;11.33;71.28;99078.22;5007831;28;20046;-63
2022/12/29 09:43:44;;;;;;;3.00;1.70;;;;;;;14.94;64.50;99072.56;5010097;28;20049;-63
2022/12/29 09:46:20;;;;;;;3.17;1.23;;;;;;;16.34;59.08;99070.63;5008321;28;20069;-62
2022/12/29 09:48:54;;;;;;;5.03;1.42;;;;;;;15.73;57.77;99075.63;5003999;28;20057;-62
2022/12/29 09:51:25;;;;;;;2.92;1.40;;;;;;;17.96;51.63;99061.94;5013039;28;20054;-63
2022/12/29 09:53:59;;;;;;;4.07;1.20;;;;;;;15.74;54.91;99071.63;5012672;28;20061;-62
2022/12/29 09:56:28;;;;;;;3.38;1.15;;;;;;;14.71;57.29;99071.81;5012912;28;20046;-62
2022/12/29 09:59:00;;;;;;;5.47;1.52;;;;;;;13.93;58.45;99089.66;5010466;28;20057;-62
2022/12/29 10:01:35;;;;;;;5.10;1.42;;;;;;;13.32;60.12;99068.88;5009334;28;20065;-63
2022/12/29 10:04:05;;;;;;;3.45;1.27;;;;;;;13.24;60.30;99066.28;5014470;28;20050;-62
2022/12/29 10:06:39;;;;;;;4.03;1.63;;;;;;;12.98;61.47;99073.31;5011178;28;20378;-62
2022/12/29 10:09:17;;;;;;;5.32;1.58;;;;;;;12.82;59.78;99066.94;5010402;28;20431;-63
2022/12/29 10:12:04;;;;;;;5.28;1.42;;;;;;;13.01;60.42;99078.16;5011266;28;20061;-62
2022/12/29 10:14:51;;;;;;;2.97;1.17;;;;;;;12.92;60.76;99074.75;5007438;28;20049;-64
2022/12/29 10:17:32;;;;;;;3.55;1.25;;;;;;;12.71;59.59;99080.66;5013701;28;20053;-62
2022/12/29 10:20:28;;;;;;;5.80;1.50;;;;;;;12.85;59.28;99086.59;5011660;28;20060;-64
2022/12/29 10:23:17;;;;;;;5.78;1.90;;;;;;;12.62;58.83;99066.06;5011128;28;20050;-62
2022/12/29 10:25:46;;;;;;;;;;;;;;;12.65;57.12;99084.91;5013484;28;20053;-62
2022/12/29 10:28:21;;;;;;;4.57;1.70;;;;;;;12.85;57.71;99083.78;5012421;28;19921;-65
2022/12/29 10:30:52;;;;;;;4.78;1.60;;;;;;;13.10;57.27;99070.38;5011455;28;20050;-62
2022/12/29 10:33:27;;;;;;;6.18;1.70;;;;;;;14.00;52.97;99061.00;5010970;28;20057;-61
2022/12/29 10:35:55;;;;;;;4.65;1.63;;;;;;;16.32;48.17;99053.34;5013247;28;20050;-61
2022/12/29 10:38:30;;;;;;;9.18;1.70;;;;;;;14.92;49.70;99049.69;5010117;28;20042;-61
2022/12/29 10:41:05;;;;;;;3.88;1.60;;;;;;;14.10;49.93;99073.56;5012287;28;20053;-61
2022/12/29 10:43:45;;;;;;;5.82;1.40;;;;;;;14.45;49.54;99061.34;5012273;28;20061;-60
2022/12/29 10:46:19;;;;;;;4.63;1.30;;;;;;;14.01;50.84;99068.22;5010682;28;20053;-60
2022/12/29 10:48:47;;;;;;;4.47;1.40;;;;;;;13.83;50.76;99069.88;5013247;28;20049;-60
2022/12/29 10:51:22;;;;;;;4.35;1.60;;;;;;;13.69;50.58;99068.44;5012467;28;20054;-60
2022/12/29 10:53:53;;;;;;;3.65;1.15;;;;;;;13.81;51.21;99067.44;5009037;28;20054;-60
2022/12/29 10:56:33;;;;;;;4.00;1.17;;;;;;;13.85;50.58;99061.91;5008928;28;20054;-61
2022/12/29 10:59:06;;;;;;;3.03;1.20;;;;;;;14.05;50.14;99076.66;5013364;28;20064;-62
2022/12/29 11:01:41;;;;;;;5.03;1.50;;;;;;;13.65;51.34;99078.75;5011910;28;20061;-62
2022/12/29 11:04:34;;;;;;;5.93;1.77;;;;;;;13.60;52.06;99090.22;5012215;28;20061;-61
2022/12/29 11:07:03;;;;;;;5.35;1.48;;;;;;;13.84;51.50;99069.50;5005118;28;20050;-62
2022/12/29 11:09:33;;;;;;;3.05;1.58;;;;;;;14.07;50.33;99066.72;5010659;28;20049;-63
2022/12/29 11:12:20;;;;;;;5.93;1.58;;;;;;;15.18;47.59;99068.50;5008823;28;20055;-62
2022/12/29 11:14:48;;;;;;;5.70;1.52;;;;;;;14.38;49.75;99068.47;5008579;28;20060;-60
2022/12/29 11:17:17;;;;;;;5.00;1.73;;;;;;;13.98;50.02;99086.56;5007664;28;20049;-60
2022/12/29 11:19:46;;;;;;;5.13;1.83;;;;;;;13.80;50.75;99088.22;5008746;28;20049;-63
2022/12/29 11:22:21;;;;;;;5.82;1.55;;;;;;;13.42;50.83;99087.06;5011135;28;20487;-61
2022/12/29 11:24:52;;;;;;;3.53;1.45;;;;;;;13.32;50.72;99101.63;5009142;28;20429;-61
2022/12/29 11:27:23;;;;;;;3.90;1.33;;;;;;;13.27;51.62;99083.13;5007993;28;20054;-63
2022/12/29 11:29:51;;;;;;;5.40;1.90;;;;;;;13.37;52.24;99096.53;5005074;28;20068;-62
2022/12/29 11:32:20;;;;;;;6.47;1.48;;;;;;;13.30;51.19;99107.56;5012638;28;20054;-63
2022/12/29 11:34:49;;;;;;;5.72;1.95;;;;;;;13.25;52.09;99105.06;5012687;28;20054;-62
2022/12/29 11:37:19;;;;;;;4.78;1.60;;;;;;;13.22;51.60;99105.78;5009551;28;20057;-62
2022/12/29 11:39:57;;;;;;;4.82;1.55;;;;;;;13.31;52.57;99106.41;5012484;28;20054;-62
2022/12/29 11:42:39;;;;;;;7.65;2.08;;;;;;;13.27;52.64;99107.47;5012706;28;20133;-62
2022/12/29 11:45:16;;;;;;;3.58;1.50;;;;;;;13.23;51.63;99114.97;5012983;28;20050;-61
2022/12/29 11:47:46;;;;;;;4.55;1.60;;;;;;;13.25;51.60;99124.63;5012567;28;20068;-61
2022/12/29 11:50:19;;;;;;;3.30;1.10;;;;;;;13.23;51.79;99132.56;5011545;28;20057;-61
2022/12/29 11:52:49;;;;;;;5.97;1.95;;;;;;;13.21;52.01;99129.34;5011679;28;20058;-61
2022/12/29 11:55:20;;;;;;;3.60;1.33;;;;;;;13.20;52.72;99130.50;5010163;28;20491;-60
2022/12/29 11:57:51;;;;;;;5.15;1.38;;;;;;;13.22;52.75;99130.94;5011593;28;20046;-61
2022/12/29 12:00:20;;;;;;;5.35;1.80;;;;;;;13.15;52.41;99137.19;5012713;28;20053;-60
2022/12/29 12:02:57;;;;;;;6.53;2.08;;;;;;;13.13;51.64;99135.94;5012699;28;20061;-61
2022/12/29 12:05:34;;;;;;;6.68;1.60;;;;;;;13.10;52.04;99143.06;5009065;28;20050;-58
2022/12/29 12:08:10;;;;;;;5.63;1.52;;;;;;;13.07;52.45;99154.16;5012550;28;20053;-61
2022/12/29 12:10:50;;;;;;;4.28;1.30;;;;;;;13.04;52.72;99144.53;5012104;28;20060;-61
2022/12/29 12:13:26;;;;;;;5.15;1.75;;;;;;;12.97;53.12;99150.72;4992135;28;20050;-60
2022/12/29 12:16:00;;;;;;;4.45;1.60;;;;;;;12.96;51.98;99146.31;4992637;28;20065;-61
2022/12/29 12:18:38;;;;;;;5.93;1.20;;;;;;;13.03;52.22;99148.47;4992508;28;20073;-61
2022/12/29 12:21:13;;;;;;;6.38;1.38;;;;;;;13.01;53.63;99145.22;5008479;28;20058;-61
2022/12/29 12:23:58;;;;;;;3.63;1.40;;;;;;;13.10;52.87;99161.81;5012663;28;20478;-61
2022/12/29 12:26:33;;;;;;;5.32;1.40;;;;;;;13.08;51.87;99167.78;5012343;28;20054;-61
2022/12/29 12:29:10;;;;;;;4.68;1.48;;;;;;;13.05;52.21;99174.09;5012417;28;20057;-62
2022/12/29 12:31:46;;;;;;;3.40;1.10;;;;;;;13.07;51.59;99166.16;5012185;28;20053;-61